createdAt,value
2023-04-17T00:00:36.070Z,1013.90
2023-04-17T00:01:36.054Z,1013.91
2023-04-17T00:02:36.193Z,1013.91
2023-04-17T00:03:36.209Z,1013.93
2023-04-17T00:04:36.166Z,1013.94
2023-04-17T00:05:36.011Z,1013.95
2023-04-17T00:06:36.026Z,1013.92
2023-04-17T00:07:36.023Z,1013.96
2023-04-17T00:08:35.977Z,1013.95
2023-04-17T00:09:35.976Z,1013.90
2023-04-17T00:10:36.043Z,1013.93
2023-04-17T00:11:35.946Z,1013.90
2023-04-17T00:12:35.966Z,1013.97
2023-04-17T00:13:35.920Z,1013.90
2023-04-17T00:14:35.927Z,1013.90
2023-04-17T00:15:35.886Z,1013.93
2023-04-17T00:16:35.907Z,1013.92
2023-04-17T00:17:35.925Z,1013.94
2023-04-17T00:18:35.865Z,1013.90
2023-04-17T00:19:35.843Z,1013.88
2023-04-17T00:20:35.831Z,1013.89
2023-04-17T00:21:35.829Z,1013.91
2023-04-17T00:22:35.853Z,1013.91
2023-04-17T00:23:35.813Z,1013.90
2023-04-17T00:24:35.778Z,1013.97
2023-04-17T00:25:35.773Z,1013.91
2023-04-17T00:26:35.772Z,1013.91
2023-04-17T00:27:35.804Z,1013.88
2023-04-17T00:28:35.728Z,1013.89
2023-04-17T00:29:35.743Z,1013.85
2023-04-17T00:30:35.706Z,1013.89
2023-04-17T00:31:35.743Z,1013.88
2023-04-17T00:32:35.763Z,1013.89
2023-04-17T00:33:35.675Z,1013.90
2023-04-17T00:34:35.682Z,1013.91
2023-04-17T00:35:35.662Z,1013.93
2023-04-17T00:36:35.657Z,1013.89
2023-04-17T00:37:35.673Z,1013.96
2023-04-17T00:38:35.624Z,1013.92
2023-04-17T00:39:35.612Z,1013.95
2023-04-17T00:40:35.594Z,1013.94
2023-04-17T00:41:35.642Z,1013.95
2023-04-17T00:42:35.613Z,1013.94
2023-04-17T00:43:35.580Z,1013.96
2023-04-17T00:44:35.555Z,1013.94
2023-04-17T00:45:35.657Z,1013.95
2023-04-17T00:46:35.531Z,1013.96
2023-04-17T00:47:35.606Z,1013.97
2023-04-17T00:48:35.574Z,1013.94
2023-04-17T00:49:35.509Z,1013.94
2023-04-17T00:50:35.520Z,1013.98
2023-04-17T00:51:35.462Z,1013.96
2023-04-17T00:52:35.515Z,1013.98
2023-04-17T00:53:35.460Z,1013.97
2023-04-17T00:54:35.457Z,1014.00
2023-04-17T00:55:35.440Z,1013.98
2023-04-17T00:56:35.399Z,1013.98
2023-04-17T00:57:35.456Z,1014.02
2023-04-17T00:58:35.410Z,1013.97
2023-04-17T00:59:35.371Z,1013.97
2023-04-17T01:00:35.375Z,1014.03
2023-04-17T01:01:35.411Z,1013.97
2023-04-17T01:02:35.515Z,1014.00
2023-04-17T01:03:35.600Z,1014.00
2023-04-17T01:04:35.336Z,1014.08
2023-04-17T01:05:35.320Z,1014.05
2023-04-17T01:06:35.303Z,1014.07
2023-04-17T01:07:35.326Z,1014.02
2023-04-17T01:08:35.270Z,1014.08
2023-04-17T01:09:35.279Z,1014.04
2023-04-17T01:10:35.243Z,1014.03
2023-04-17T01:11:35.242Z,1014.05
2023-04-17T01:12:35.317Z,1014.07
2023-04-17T01:13:35.228Z,1014.09
2023-04-17T01:14:35.208Z,1014.07
2023-04-17T01:15:35.199Z,1014.11
2023-04-17T01:16:35.205Z,1014.03
2023-04-17T01:17:35.224Z,1014.07
2023-04-17T01:18:35.191Z,1014.06
2023-04-17T01:19:35.160Z,1014.06
2023-04-17T01:20:35.146Z,1014.08
2023-04-17T01:21:35.117Z,1014.08
2023-04-17T01:22:35.166Z,1014.11
2023-04-17T01:23:35.103Z,1014.08
2023-04-17T01:24:35.090Z,1014.08
2023-04-17T01:25:35.082Z,1014.05
2023-04-17T01:26:35.079Z,1014.07
2023-04-17T01:27:35.110Z,1014.12
2023-04-17T01:28:35.057Z,1014.07
2023-04-17T01:29:35.034Z,1014.12
2023-04-17T01:30:35.036Z,1014.06
2023-04-17T01:31:35.007Z,1014.11
2023-04-17T01:32:35.062Z,1014.09
2023-04-17T01:33:35.027Z,1014.12
2023-04-17T01:34:37.206Z,1014.07
2023-04-17T01:35:34.974Z,1014.10
2023-04-17T01:36:34.978Z,1014.15
2023-04-17T01:37:34.945Z,1014.12
2023-04-17T01:38:34.997Z,1014.10
2023-04-17T01:39:34.942Z,1014.12
2023-04-17T01:40:34.910Z,1014.11
2023-04-17T01:41:34.896Z,1014.13
2023-04-17T01:42:34.894Z,1014.12
2023-04-17T01:43:34.912Z,1014.11
2023-04-17T01:44:34.851Z,1014.08
2023-04-17T01:45:34.861Z,1014.14
2023-04-17T01:46:34.851Z,1014.14
2023-04-17T01:47:34.858Z,1014.13
2023-04-17T01:48:34.876Z,1014.18
2023-04-17T01:49:34.803Z,1014.16
2023-04-17T01:50:34.803Z,1014.18
2023-04-17T01:51:34.787Z,1014.19
2023-04-17T01:52:34.776Z,1014.19
2023-04-17T01:53:34.810Z,1014.16
2023-04-17T01:54:34.754Z,1014.13
2023-04-17T01:55:34.737Z,1014.17
2023-04-17T01:56:34.751Z,1014.17
2023-04-17T01:57:34.792Z,1014.19
2023-04-17T01:58:34.750Z,1014.16
2023-04-17T01:59:34.701Z,1014.13
2023-04-17T02:00:34.697Z,1014.12
2023-04-17T02:01:34.755Z,1014.14
2023-04-17T02:02:34.736Z,1014.13
2023-04-17T02:03:34.893Z,1014.15
2023-04-17T02:04:34.701Z,1014.12
2023-04-17T02:05:34.633Z,1014.08
2023-04-17T02:06:34.615Z,1014.11
2023-04-17T02:07:34.593Z,1014.12
2023-04-17T02:08:34.660Z,1014.10
2023-04-17T02:09:34.604Z,1014.10
2023-04-17T02:10:34.577Z,1014.13
2023-04-17T02:11:34.562Z,1014.13
2023-04-17T02:12:34.546Z,1014.15
2023-04-17T02:13:34.582Z,1014.14
2023-04-17T02:14:34.531Z,1014.15
2023-04-17T02:15:34.545Z,1014.17
2023-04-17T02:16:34.623Z,1014.18
2023-04-17T02:17:34.553Z,1014.23
2023-04-17T02:18:34.497Z,1014.24
2023-04-17T02:19:34.471Z,1014.28
2023-04-17T02:20:34.484Z,1014.24
2023-04-17T02:21:34.459Z,1014.28
2023-04-17T02:22:34.427Z,1014.31
2023-04-17T02:23:34.460Z,1014.29
2023-04-17T02:24:34.409Z,1014.31
2023-04-17T02:25:34.421Z,1014.32
2023-04-17T02:26:34.462Z,1014.34
2023-04-17T02:27:34.388Z,1014.33
2023-04-17T02:28:34.407Z,1014.34
2023-04-17T02:29:34.359Z,1014.29
2023-04-17T02:30:34.354Z,1014.34
2023-04-17T02:31:34.366Z,1014.34
2023-04-17T02:32:34.368Z,1014.34
2023-04-17T02:33:34.341Z,1014.36
2023-04-17T02:34:34.289Z,1014.35
2023-04-17T02:35:34.274Z,1014.35
2023-04-17T02:36:34.274Z,1014.30
2023-04-17T02:37:34.259Z,1014.34
2023-04-17T02:38:34.285Z,1014.35
2023-04-17T02:39:34.253Z,1014.31
2023-04-17T02:40:34.224Z,1014.29
2023-04-17T02:41:34.201Z,1014.31
2023-04-17T02:42:34.215Z,1014.32
2023-04-17T02:43:34.222Z,1014.34
2023-04-17T02:44:34.187Z,1014.35
2023-04-17T02:45:34.177Z,1014.31
2023-04-17T02:46:34.179Z,1014.30
2023-04-17T02:47:34.178Z,1014.33
2023-04-17T02:48:34.181Z,1014.37
2023-04-17T02:49:34.137Z,1014.37
2023-04-17T02:50:34.125Z,1014.37
2023-04-17T02:51:34.115Z,1014.32
2023-04-17T02:52:34.081Z,1014.41
2023-04-17T02:53:34.139Z,1014.36
2023-04-17T02:54:34.076Z,1014.37
2023-04-17T02:55:34.056Z,1014.38
2023-04-17T02:56:34.045Z,1014.38
2023-04-17T02:57:34.050Z,1014.36
2023-04-17T02:58:34.074Z,1014.39
2023-04-17T02:59:34.010Z,1014.41
2023-04-17T03:00:34.017Z,1014.37
2023-04-17T03:01:34.134Z,1014.40
2023-04-17T03:02:34.140Z,1014.44
2023-04-17T03:03:34.161Z,1014.41
2023-04-17T03:04:33.937Z,1014.40
2023-04-17T03:05:33.955Z,1014.43
2023-04-17T03:06:33.941Z,1014.43
2023-04-17T03:07:33.939Z,1014.48
2023-04-17T03:08:33.936Z,1014.47
2023-04-17T03:09:33.909Z,1014.49
2023-04-17T03:10:33.876Z,1014.45
2023-04-17T03:11:33.876Z,1014.46
2023-04-17T03:12:33.861Z,1014.49
2023-04-17T03:13:33.841Z,1014.44
2023-04-17T03:14:33.888Z,1014.49
2023-04-17T03:15:33.832Z,1014.48
2023-04-17T03:16:33.856Z,1014.52
2023-04-17T03:17:33.808Z,1014.51
2023-04-17T03:18:33.791Z,1014.53
2023-04-17T03:19:33.816Z,1014.53
2023-04-17T03:20:33.779Z,1014.52
2023-04-17T03:21:33.760Z,1014.57
2023-04-17T03:22:33.755Z,1014.57
2023-04-17T03:23:33.765Z,1014.56
2023-04-17T03:24:33.763Z,1014.57
2023-04-17T03:25:33.778Z,1014.55
2023-04-17T03:26:33.702Z,1014.55
2023-04-17T03:27:33.702Z,1014.58
2023-04-17T03:28:33.674Z,1014.55
2023-04-17T03:29:33.709Z,1014.60
2023-04-17T03:30:33.670Z,1014.60
2023-04-17T03:31:33.656Z,1014.61
2023-04-17T03:32:33.658Z,1014.59
2023-04-17T03:33:33.610Z,1014.58
2023-04-17T03:34:33.637Z,1014.63
2023-04-17T03:35:33.597Z,1014.61
2023-04-17T03:36:33.580Z,1014.64
2023-04-17T03:37:33.601Z,1014.66
2023-04-17T03:38:33.564Z,1014.66
2023-04-17T03:39:33.585Z,1014.71
2023-04-17T03:40:33.837Z,1014.69
2023-04-17T03:41:33.547Z,1014.70
2023-04-17T03:42:33.518Z,1014.72
2023-04-17T03:43:33.518Z,1014.78
2023-04-17T03:44:33.606Z,1014.71
2023-04-17T03:45:33.524Z,1014.72
2023-04-17T03:46:33.464Z,1014.76
2023-04-17T03:47:33.523Z,1014.79
2023-04-17T03:48:33.454Z,1014.74
2023-04-17T03:49:33.474Z,1014.76
2023-04-17T03:50:33.439Z,1014.78
2023-04-17T03:51:33.420Z,1014.78
2023-04-17T03:52:33.426Z,1014.74
2023-04-17T03:53:33.403Z,1014.76
2023-04-17T03:54:33.422Z,1014.76
2023-04-17T03:55:33.395Z,1014.80
2023-04-17T03:56:33.378Z,1014.76
2023-04-17T03:57:33.323Z,1014.75
2023-04-17T03:58:33.318Z,1014.81
2023-04-17T03:59:33.359Z,1014.79
2023-04-17T04:00:33.311Z,1014.81
2023-04-17T04:01:33.289Z,1014.78
2023-04-17T04:02:33.351Z,1014.83
2023-04-17T04:03:33.510Z,1014.88
2023-04-17T04:04:33.544Z,1014.92
2023-04-17T04:05:33.268Z,1014.89
2023-04-17T04:06:33.228Z,1014.91
2023-04-17T04:07:33.234Z,1014.90
2023-04-17T04:08:33.198Z,1014.94
2023-04-17T04:09:33.226Z,1014.96
2023-04-17T04:10:33.184Z,1014.93
2023-04-17T04:11:33.195Z,1014.97
2023-04-17T04:12:33.166Z,1015.07
2023-04-17T04:13:33.150Z,1015.00
2023-04-17T04:14:33.181Z,1015.02
2023-04-17T04:15:33.138Z,1015.03
2023-04-17T04:16:33.191Z,1015.08
2023-04-17T04:17:33.165Z,1015.06
2023-04-17T04:18:33.103Z,1015.03
2023-04-17T04:19:33.122Z,1015.07
2023-04-17T04:20:33.077Z,1015.07
2023-04-17T04:21:33.044Z,1015.10
2023-04-17T04:22:33.038Z,1015.14
2023-04-17T04:23:33.035Z,1015.10
2023-04-17T04:24:33.041Z,1015.09
2023-04-17T04:25:33.028Z,1015.13
2023-04-17T04:26:33.008Z,1015.08
2023-04-17T04:27:33.062Z,1015.10
2023-04-17T04:28:32.981Z,1015.17
2023-04-17T04:29:33.017Z,1015.16
2023-04-17T04:30:32.950Z,1015.15
2023-04-17T04:31:33.007Z,1015.17
2023-04-17T04:32:33.076Z,1015.18
2023-04-17T04:33:32.929Z,1015.19
2023-04-17T04:34:32.945Z,1015.19
2023-04-17T04:35:32.926Z,1015.20
2023-04-17T04:36:32.873Z,1015.23
2023-04-17T04:37:32.880Z,1015.21
2023-04-17T04:38:33.265Z,1015.21
2023-04-17T04:39:32.892Z,1015.25
2023-04-17T04:40:32.852Z,1015.27
2023-04-17T04:41:32.822Z,1015.27
2023-04-17T04:42:32.955Z,1015.27
2023-04-17T04:43:32.807Z,1015.28
2023-04-17T04:44:32.809Z,1015.24
2023-04-17T04:45:32.804Z,1015.31
2023-04-17T04:46:32.819Z,1015.29
2023-04-17T04:47:32.791Z,1015.30
2023-04-17T04:48:32.754Z,1015.27
2023-04-17T04:49:32.730Z,1015.24
2023-04-17T04:50:32.793Z,1015.29
2023-04-17T04:51:32.711Z,1015.34
2023-04-17T04:52:32.706Z,1015.29
2023-04-17T04:53:32.690Z,1015.33
2023-04-17T04:54:32.700Z,1015.30
2023-04-17T04:55:32.697Z,1015.33
2023-04-17T04:56:33.092Z,1015.32
2023-04-17T04:57:32.640Z,1015.34
2023-04-17T04:58:32.624Z,1015.41
2023-04-17T04:59:32.630Z,1015.37
2023-04-17T05:00:32.660Z,1015.40
2023-04-17T05:01:32.700Z,1015.39
2023-04-17T05:02:32.682Z,1015.41
2023-04-17T05:03:32.756Z,1015.44
2023-04-17T05:04:32.685Z,1015.42
2023-04-17T05:05:32.569Z,1015.42
2023-04-17T05:06:32.568Z,1015.41
2023-04-17T05:07:32.544Z,1015.47
2023-04-17T05:08:32.540Z,1015.43
2023-04-17T05:09:32.505Z,1015.44
2023-04-17T05:10:32.668Z,1015.48
2023-04-17T05:11:32.477Z,1015.48
2023-04-17T05:12:32.470Z,1015.52
2023-04-17T05:13:32.472Z,1015.50
2023-04-17T05:14:32.442Z,1015.51
2023-04-17T05:15:32.483Z,1015.47
2023-04-17T05:16:32.469Z,1015.55
2023-04-17T05:17:32.448Z,1015.55
2023-04-17T05:18:32.411Z,1015.53
2023-04-17T05:19:32.373Z,1015.56
2023-04-17T05:20:32.415Z,1015.57
2023-04-17T05:21:32.400Z,1015.59
2023-04-17T05:22:32.357Z,1015.57
2023-04-17T05:23:32.368Z,1015.59
2023-04-17T05:24:32.323Z,1015.56
2023-04-17T05:25:32.371Z,1015.62
2023-04-17T05:26:32.310Z,1015.61
2023-04-17T05:27:32.308Z,1015.63
2023-04-17T05:28:32.294Z,1015.66
2023-04-17T05:29:32.292Z,1015.67
2023-04-17T05:30:32.291Z,1015.65
2023-04-17T05:31:32.297Z,1015.68
2023-04-17T05:32:32.276Z,1015.66
2023-04-17T05:33:32.225Z,1015.72
2023-04-17T05:34:32.205Z,1015.72
2023-04-17T05:35:32.260Z,1015.72
2023-04-17T05:36:32.185Z,1015.68
2023-04-17T05:37:32.196Z,1015.69
2023-04-17T05:38:32.171Z,1015.72
2023-04-17T05:39:32.158Z,1015.67
2023-04-17T05:40:32.184Z,1015.70
2023-04-17T05:41:32.144Z,1015.71
2023-04-17T05:42:32.134Z,1015.73
2023-04-17T05:43:32.143Z,1015.79
2023-04-17T05:44:32.103Z,1015.73
2023-04-17T05:45:32.154Z,1015.71
2023-04-17T05:46:32.087Z,1015.71
2023-04-17T05:47:32.099Z,1015.75
2023-04-17T05:48:32.048Z,1015.75
2023-04-17T05:49:32.052Z,1015.76
2023-04-17T05:50:32.084Z,1015.74
2023-04-17T05:51:32.007Z,1015.75
2023-04-17T05:52:32.016Z,1015.75
2023-04-17T05:53:32.022Z,1015.76
2023-04-17T05:54:31.999Z,1015.82
2023-04-17T05:55:32.019Z,1015.79
2023-04-17T05:56:31.965Z,1015.82
2023-04-17T05:57:31.958Z,1015.81
2023-04-17T05:58:31.944Z,1015.82
2023-04-17T05:59:32.047Z,1015.85
2023-04-17T06:00:31.903Z,1015.78
2023-04-17T06:01:31.954Z,1015.77
2023-04-17T06:02:31.980Z,1015.86
2023-04-17T06:03:32.091Z,1015.74
2023-04-17T06:04:32.101Z,1015.77
2023-04-17T06:05:32.014Z,1015.77
2023-04-17T06:06:31.906Z,1015.80
2023-04-17T06:07:31.845Z,1015.78
2023-04-17T06:08:31.849Z,1015.72
2023-04-17T06:09:31.830Z,1015.75
2023-04-17T06:10:31.826Z,1015.74
2023-04-17T06:11:31.860Z,1015.72
2023-04-17T06:12:31.814Z,1015.80
2023-04-17T06:13:31.785Z,1015.78
2023-04-17T06:14:31.770Z,1015.75
2023-04-17T06:15:31.744Z,1015.75
2023-04-17T06:16:31.830Z,1015.73
2023-04-17T06:17:31.806Z,1015.77
2023-04-17T06:18:31.725Z,1015.78
2023-04-17T06:19:31.704Z,1015.70
2023-04-17T06:20:31.692Z,1015.71
2023-04-17T06:21:31.732Z,1015.75
2023-04-17T06:22:31.694Z,1015.77
2023-04-17T06:23:31.690Z,1015.73
2023-04-17T06:24:31.637Z,1015.77
2023-04-17T06:25:31.625Z,1015.79
2023-04-17T06:26:31.686Z,1015.81
2023-04-17T06:27:31.602Z,1015.77
2023-04-17T06:28:31.614Z,1015.78
2023-04-17T06:29:31.608Z,1015.80
2023-04-17T06:30:31.579Z,1015.85
2023-04-17T06:31:31.761Z,1015.83
2023-04-17T06:32:31.604Z,1015.83
2023-04-17T06:33:31.545Z,1015.85
2023-04-17T06:34:31.534Z,1015.89
2023-04-17T06:35:31.522Z,1015.91
2023-04-17T06:36:31.542Z,1015.82
2023-04-17T06:37:31.496Z,1015.86
2023-04-17T06:38:31.495Z,1015.87
2023-04-17T06:39:31.463Z,1015.85
2023-04-17T06:40:31.472Z,1015.87
2023-04-17T06:41:31.481Z,1015.90
2023-04-17T06:42:31.429Z,1015.89
2023-04-17T06:43:31.410Z,1015.88
2023-04-17T06:44:31.413Z,1015.88
2023-04-17T06:45:31.390Z,1015.88
2023-04-17T06:46:31.496Z,1015.92
2023-04-17T06:47:31.409Z,1015.92
2023-04-17T06:48:31.372Z,1015.94
2023-04-17T06:49:31.352Z,1015.91
2023-04-17T06:50:31.382Z,1015.97
2023-04-17T06:51:31.354Z,1016.01
2023-04-17T06:52:31.336Z,1015.97
2023-04-17T06:53:31.300Z,1015.93
2023-04-17T06:54:31.346Z,1015.95
2023-04-17T06:55:31.279Z,1016.01
2023-04-17T06:56:31.328Z,1016.03
2023-04-17T06:57:31.253Z,1016.07
2023-04-17T06:58:31.262Z,1016.06
2023-04-17T06:59:31.246Z,1016.05
2023-04-17T07:00:31.243Z,1016.06
2023-04-17T07:01:31.220Z,1016.04
2023-04-17T07:02:31.482Z,1016.02
2023-04-17T07:03:31.350Z,1016.07
2023-04-17T07:04:31.220Z,1016.07
2023-04-17T07:05:31.180Z,1016.09
2023-04-17T07:06:31.171Z,1016.10
2023-04-17T07:07:31.191Z,1016.18
2023-04-17T07:08:31.136Z,1016.12
2023-04-17T07:09:31.136Z,1016.13
2023-04-17T07:10:31.118Z,1016.08
2023-04-17T07:11:31.103Z,1016.14
2023-04-17T07:12:31.135Z,1016.16
2023-04-17T07:13:31.077Z,1016.21
2023-04-17T07:14:31.071Z,1016.16
2023-04-17T07:15:31.063Z,1016.19
2023-04-17T07:16:31.105Z,1016.21
2023-04-17T07:17:31.091Z,1016.22
2023-04-17T07:18:31.034Z,1016.23
2023-04-17T07:19:31.006Z,1016.25
2023-04-17T07:20:30.994Z,1016.30
2023-04-17T07:21:30.988Z,1016.25
2023-04-17T07:22:31.035Z,1016.22
2023-04-17T07:23:31.021Z,1016.27
2023-04-17T07:24:30.956Z,1016.36
2023-04-17T07:25:30.973Z,1016.34
2023-04-17T07:26:30.952Z,1016.31
2023-04-17T07:27:30.966Z,1016.31
2023-04-17T07:28:30.899Z,1016.35
2023-04-17T07:29:30.898Z,1016.31
2023-04-17T07:30:30.876Z,1016.40
2023-04-17T07:31:30.909Z,1016.37
2023-04-17T07:32:30.929Z,1016.32
2023-04-17T07:33:30.848Z,1016.35
2023-04-17T07:34:30.857Z,1016.29
2023-04-17T07:35:30.811Z,1016.38
2023-04-17T07:36:30.796Z,1016.35
2023-04-17T07:37:30.839Z,1016.39
2023-04-17T07:38:30.786Z,1016.40
2023-04-17T07:39:30.811Z,1016.49
2023-04-17T07:40:30.766Z,1016.44
2023-04-17T07:41:30.755Z,1016.45
2023-04-17T07:42:30.830Z,1016.51
2023-04-17T07:43:30.719Z,1016.51
2023-04-17T07:44:30.731Z,1016.52
2023-04-17T07:45:31.529Z,1016.55
2023-04-17T07:46:30.774Z,1016.56
2023-04-17T07:47:30.773Z,1016.58
2023-04-17T07:48:30.659Z,1016.55
2023-04-17T07:49:30.677Z,1016.54
2023-04-17T07:50:30.638Z,1016.55
2023-04-17T07:51:30.631Z,1016.60
2023-04-17T07:52:30.670Z,1016.56
2023-04-17T07:53:30.601Z,1016.56
2023-04-17T07:54:30.603Z,1016.61
2023-04-17T07:55:30.574Z,1016.59
2023-04-17T07:56:30.565Z,1016.55
2023-04-17T07:57:30.624Z,1016.60
2023-04-17T07:58:30.557Z,1016.56
2023-04-17T07:59:30.562Z,1016.55
2023-04-17T08:00:30.548Z,1016.63
2023-04-17T08:01:30.506Z,1016.57
2023-04-17T08:02:30.621Z,1016.64
2023-04-17T08:03:30.670Z,1016.59
2023-04-17T08:04:30.600Z,1016.59
2023-04-17T08:05:30.538Z,1016.62
2023-04-17T08:06:30.467Z,1016.59
2023-04-17T08:07:30.488Z,1016.65
2023-04-17T08:08:30.441Z,1016.60
2023-04-17T08:09:30.437Z,1016.63
2023-04-17T08:10:30.423Z,1016.62
2023-04-17T08:11:30.421Z,1016.60
2023-04-17T08:12:30.461Z,1016.59
2023-04-17T08:13:30.413Z,1016.61
2023-04-17T08:14:30.362Z,1016.58
2023-04-17T08:15:30.348Z,1016.61
2023-04-17T08:16:30.414Z,1016.61
2023-04-17T08:17:30.388Z,1016.66
2023-04-17T08:18:30.337Z,1016.62
2023-04-17T08:19:30.309Z,1016.67
2023-04-17T08:20:30.309Z,1016.63
2023-04-17T08:21:30.293Z,1016.67
2023-04-17T08:22:30.333Z,1016.67
2023-04-17T08:23:30.253Z,1016.68
2023-04-17T08:24:30.240Z,1016.66
2023-04-17T08:25:30.264Z,1016.62
2023-04-17T08:26:30.264Z,1016.60
2023-04-17T08:27:30.284Z,1016.59
2023-04-17T08:28:30.231Z,1016.60
2023-04-17T08:29:30.211Z,1016.65
2023-04-17T08:30:30.255Z,1016.74
2023-04-17T08:31:30.226Z,1016.65
2023-04-17T08:32:30.224Z,1016.66
2023-04-17T08:33:30.155Z,1016.69
2023-04-17T08:34:30.175Z,1016.72
2023-04-17T08:35:30.139Z,1016.71
2023-04-17T08:36:30.125Z,1016.69
2023-04-17T08:37:30.139Z,1016.72
2023-04-17T08:38:30.092Z,1016.65
2023-04-17T08:39:30.090Z,1016.70
2023-04-17T08:40:30.093Z,1016.69
2023-04-17T08:41:30.069Z,1016.81
2023-04-17T08:42:30.090Z,1016.82
2023-04-17T08:43:30.052Z,1016.82
2023-04-17T08:44:30.038Z,1016.81
2023-04-17T08:45:30.005Z,1016.84
2023-04-17T08:46:30.031Z,1016.86
2023-04-17T08:47:30.058Z,1016.80
2023-04-17T08:48:29.998Z,1016.81
2023-04-17T08:49:29.969Z,1016.88
2023-04-17T08:50:29.962Z,1016.91
2023-04-17T08:51:29.940Z,1016.87
2023-04-17T08:52:29.975Z,1016.89
2023-04-17T08:53:29.916Z,1016.86
2023-04-17T08:54:29.902Z,1016.85
2023-04-17T08:55:29.925Z,1016.88
2023-04-17T08:56:29.879Z,1016.87
2023-04-17T08:57:29.907Z,1016.90
2023-04-17T08:58:29.900Z,1016.83
2023-04-17T08:59:29.859Z,1016.95
2023-04-17T09:00:29.881Z,1016.90
2023-04-17T09:01:29.917Z,1016.90
2023-04-17T09:02:29.969Z,1016.95
2023-04-17T09:03:29.880Z,1016.94
2023-04-17T09:04:29.850Z,1016.93
2023-04-17T09:05:29.765Z,1016.88
2023-04-17T09:06:29.771Z,1016.91
2023-04-17T09:07:29.774Z,1016.95
2023-04-17T09:08:29.797Z,1016.91
2023-04-17T09:09:29.732Z,1016.91
2023-04-17T09:10:29.712Z,1017.01
2023-04-17T09:11:29.737Z,1016.97
2023-04-17T09:12:29.715Z,1016.94
2023-04-17T09:13:29.736Z,1016.99
2023-04-17T09:14:29.688Z,1017.01
2023-04-17T09:15:29.670Z,1016.98
2023-04-17T09:16:29.714Z,1017.03
2023-04-17T09:17:29.667Z,1017.08
2023-04-17T09:18:29.655Z,1017.04
2023-04-17T09:19:29.634Z,1017.07
2023-04-17T09:20:29.601Z,1017.09
2023-04-17T09:21:29.599Z,1017.05
2023-04-17T09:22:29.595Z,1017.04
2023-04-17T09:23:29.666Z,1017.08
2023-04-17T09:24:29.570Z,1017.07
2023-04-17T09:25:29.570Z,1017.13
2023-04-17T09:26:29.604Z,1017.09
2023-04-17T09:27:29.562Z,1017.10
2023-04-17T09:28:29.580Z,1017.09
2023-04-17T09:29:29.538Z,1017.06
2023-04-17T09:30:29.492Z,1017.11
2023-04-17T09:31:29.500Z,1017.11
2023-04-17T09:32:29.467Z,1017.11
2023-04-17T09:33:29.512Z,1017.12
2023-04-17T09:34:29.471Z,1017.14
2023-04-17T09:35:29.467Z,1017.14
2023-04-17T09:36:29.480Z,1017.13
2023-04-17T09:37:29.428Z,1017.15
2023-04-17T09:38:29.443Z,1017.13
2023-04-17T09:39:29.404Z,1017.15
2023-04-17T09:40:29.366Z,1017.18
2023-04-17T09:41:29.392Z,1017.20
2023-04-17T09:42:29.362Z,1017.20
2023-04-17T09:43:29.395Z,1017.22
2023-04-17T09:44:29.343Z,1017.22
2023-04-17T09:45:29.327Z,1017.24
2023-04-17T09:46:29.340Z,1017.18
2023-04-17T09:47:29.325Z,1017.21
2023-04-17T09:48:29.334Z,1017.25
2023-04-17T09:49:29.300Z,1017.20
2023-04-17T09:50:29.290Z,1017.21
2023-04-17T09:51:29.269Z,1017.18
2023-04-17T09:52:29.237Z,1017.22
2023-04-17T09:53:29.274Z,1017.24
2023-04-17T09:54:29.226Z,1017.23
2023-04-17T09:55:29.247Z,1017.19
2023-04-17T09:56:29.220Z,1017.23
2023-04-17T09:57:29.247Z,1017.25
2023-04-17T09:58:29.204Z,1017.32
2023-04-17T09:59:29.144Z,1017.28
2023-04-17T10:00:29.182Z,1017.36
2023-04-17T10:01:29.171Z,1017.36
2023-04-17T10:02:29.279Z,1017.36
2023-04-17T10:03:29.329Z,1017.38
2023-04-17T10:04:29.174Z,1017.36
2023-04-17T10:05:29.282Z,1017.34
2023-04-17T10:06:29.059Z,1017.35
2023-04-17T10:07:29.080Z,1017.39
2023-04-17T10:08:29.105Z,1017.39
2023-04-17T10:09:29.068Z,1017.37
2023-04-17T10:10:29.024Z,1017.39
2023-04-17T10:11:29.028Z,1017.39
2023-04-17T10:12:29.025Z,1017.43
2023-04-17T10:13:29.053Z,1017.39
2023-04-17T10:14:29.061Z,1017.43
2023-04-17T10:15:28.980Z,1017.45
2023-04-17T10:16:28.991Z,1017.47
2023-04-17T10:17:29.135Z,1017.38
2023-04-17T10:18:28.997Z,1017.45
2023-04-17T10:19:28.954Z,1017.47
2023-04-17T10:20:28.921Z,1017.43
2023-04-17T10:21:28.924Z,1017.47
2023-04-17T10:22:28.919Z,1017.44
2023-04-17T10:23:28.928Z,1017.47
2023-04-17T10:24:28.859Z,1017.41
2023-04-17T10:25:28.888Z,1017.45
2023-04-17T10:26:28.853Z,1017.41
2023-04-17T10:27:28.850Z,1017.47
2023-04-17T10:28:28.814Z,1017.44
2023-04-17T10:29:28.837Z,1017.43
2023-04-17T10:30:28.797Z,1017.47
2023-04-17T10:31:28.844Z,1017.42
2023-04-17T10:32:29.096Z,1017.47
2023-04-17T10:33:28.780Z,1017.47
2023-04-17T10:34:28.801Z,1017.49
2023-04-17T10:35:28.761Z,1017.46
2023-04-17T10:36:28.727Z,1017.48
2023-04-17T10:37:28.718Z,1017.48
2023-04-17T10:38:28.721Z,1017.51
2023-04-17T10:39:28.758Z,1017.50
2023-04-17T10:40:28.699Z,1017.48
2023-04-17T10:41:28.684Z,1017.49
2023-04-17T10:42:28.694Z,1017.51
2023-04-17T10:43:28.686Z,1017.52
2023-04-17T10:44:28.699Z,1017.54
2023-04-17T10:45:28.666Z,1017.54
2023-04-17T10:46:28.734Z,1017.50
2023-04-17T10:47:28.659Z,1017.53
2023-04-17T10:48:28.628Z,1017.53
2023-04-17T10:49:28.623Z,1017.46
2023-04-17T10:50:28.575Z,1017.48
2023-04-17T10:51:28.577Z,1017.53
2023-04-17T10:52:28.562Z,1017.50
2023-04-17T10:53:28.568Z,1017.48
2023-04-17T10:54:28.561Z,1017.48
2023-04-17T10:55:28.496Z,1017.46
2023-04-17T10:56:28.500Z,1017.49
2023-04-17T10:57:28.494Z,1017.58
2023-04-17T10:58:31.553Z,1017.55
2023-04-17T10:59:28.537Z,1017.55
2023-04-17T11:00:28.449Z,1017.54
2023-04-17T11:01:28.977Z,1017.61
2023-04-17T11:02:28.507Z,1017.60
2023-04-17T11:03:28.498Z,1017.61
2023-04-17T11:04:28.538Z,1017.63
2023-04-17T11:05:28.406Z,1017.63
2023-04-17T11:06:28.398Z,1017.57
2023-04-17T11:07:28.362Z,1017.56
2023-04-17T11:08:28.365Z,1017.59
2023-04-17T11:09:28.396Z,1017.57
2023-04-17T11:10:28.362Z,1017.59
2023-04-17T11:11:40.503Z,1017.58
2023-04-17T11:12:29.323Z,1017.62
2023-04-17T11:13:28.310Z,1017.57
2023-04-17T11:14:28.348Z,1017.59
2023-04-17T11:15:28.313Z,1017.57
2023-04-17T11:16:28.388Z,1017.60
2023-04-17T11:17:28.315Z,1017.62
2023-04-17T11:18:28.276Z,1017.61
2023-04-17T11:19:28.300Z,1017.59
2023-04-17T11:20:28.270Z,1017.62
2023-04-17T11:21:29.059Z,1017.63
2023-04-17T11:22:28.233Z,1017.59
2023-04-17T11:23:28.189Z,1017.63
2023-04-17T11:24:28.458Z,1017.67
2023-04-17T11:25:28.164Z,1017.64
2023-04-17T11:26:28.179Z,1017.71
2023-04-17T11:27:28.167Z,1017.62
2023-04-17T11:28:28.220Z,1017.64
2023-04-17T11:29:28.194Z,1017.67
2023-04-17T11:30:28.132Z,1017.65
2023-04-17T11:31:28.111Z,1017.68
2023-04-17T11:32:28.139Z,1017.71
2023-04-17T11:33:28.074Z,1017.69
2023-04-17T11:34:28.165Z,1017.69
2023-04-17T11:35:28.074Z,1017.70
2023-04-17T11:36:28.058Z,1017.69
2023-04-17T11:37:28.037Z,1017.71
2023-04-17T11:38:28.072Z,1017.71
2023-04-17T11:39:28.062Z,1017.70
2023-04-17T11:40:28.017Z,1017.71
2023-04-17T11:41:27.993Z,1017.76
2023-04-17T11:42:27.999Z,1017.77
2023-04-17T11:43:28.005Z,1017.80
2023-04-17T11:44:28.025Z,1017.74
2023-04-17T11:45:27.970Z,1017.79
2023-04-17T11:46:27.990Z,1017.79
2023-04-17T11:47:27.964Z,1017.77
2023-04-17T11:48:27.916Z,1017.82
2023-04-17T11:49:27.953Z,1017.80
2023-04-17T11:50:27.933Z,1017.89
2023-04-17T11:51:27.892Z,1017.83
2023-04-17T11:52:27.862Z,1017.84
2023-04-17T11:53:27.851Z,1017.81
2023-04-17T11:54:28.033Z,1017.83
2023-04-17T11:55:27.846Z,1017.83
2023-04-17T11:56:27.935Z,1017.80
2023-04-17T11:57:27.815Z,1017.81
2023-04-17T11:58:29.525Z,1017.83
2023-04-17T11:59:27.833Z,1017.81
2023-04-17T12:00:27.763Z,1017.85
2023-04-17T12:01:27.762Z,1017.83
2023-04-17T12:02:27.866Z,1017.84
2023-04-17T12:03:27.976Z,1017.80
2023-04-17T12:04:27.959Z,1017.79
2023-04-17T12:05:27.868Z,1017.77